Time;durP1;ratioP1;P1;durP2;ratioP2;P2;SDS_P1;SDS_P2;PMS_P1;PMS_P2;Temp;Humidity;BMP_temperature;BMP_pressure;BME280_temperature;BME280_humidity;BME280_pressure;Samples;Min_cycle;Max_cycle;Signal;HPM_P1;HPM_P2
2020/12/18 00:04:59;;;;;;;118.50;59.40;;;;;;;4.64;67.88;99932.76;250876;1133;114917;-80
2020/12/18 00:10:10;;;;;;;111.97;59.63;;;;;;;4.71;67.90;99940.48;251712;1134;115261;-86
2020/12/18 00:15:13;;;;;;;117.67;60.57;;;;;;;4.73;67.54;99937.83;250215;1134;115472;-80
2020/12/18 00:20:15;;;;;;;111.70;60.17;;;;;;;4.74;67.79;99937.77;250863;1134;115352;-86
2020/12/18 00:25:18;;;;;;;108.40;56.27;;;;;;;4.71;67.19;99937.84;251566;1134;115077;-87
2020/12/18 00:30:20;;;;;;;99.92;55.58;;;;;;;4.63;67.75;99942.44;251851;1134;114878;-87
2020/12/18 00:35:23;;;;;;;106.23;55.47;;;;;;;4.55;67.34;99939.09;251128;1133;114765;-79
2020/12/18 00:40:26;;;;;;;96.07;52.43;;;;;;;4.52;67.87;99939.20;251829;1134;115142;-79
2020/12/18 00:45:29;;;;;;;101.67;53.78;;;;;;;4.47;67.08;99941.92;249178;1134;115076;-86
2020/12/18 00:50:33;;;;;;;100.57;52.13;;;;;;;4.47;67.86;99941.92;251745;1134;115154;-88
2020/12/18 00:55:36;;;;;;;102.87;51.90;;;;;;;4.47;67.49;99957.73;251907;1134;115650;-88
2020/12/18 01:00:38;;;;;;;90.93;48.30;;;;;;;4.53;68.06;99955.87;251872;1134;115585;-87
2020/12/18 01:05:47;;;;;;;90.17;47.67;;;;;;;4.61;67.74;99969.73;251785;1134;115084;-87
2020/12/18 01:10:51;;;;;;;89.28;45.73;;;;;;;4.71;67.82;99963.34;250845;1134;114754;-87
2020/12/18 01:15:54;;;;;;;76.93;42.30;;;;;;;4.79;68.33;99956.14;251641;1133;115025;-87
2020/12/18 01:21:04;;;;;;;73.37;39.25;;;;;;;4.81;67.74;99959.59;251672;1136;114545;-88
2020/12/18 01:26:11;;;;;;;63.10;33.50;;;;;;;4.84;68.70;99961.30;251624;1134;114605;-86
2020/12/18 01:31:15;;;;;;;70.83;37.13;;;;;;;4.79;68.66;99956.14;251679;1134;115002;-86
2020/12/18 01:36:19;;;;;;;66.87;36.17;;;;;;;4.79;68.72;99968.44;251713;1134;114866;-86
2020/12/18 01:41:26;;;;;;;67.10;36.53;;;;;;;4.84;68.99;99966.57;251716;1133;114765;-86
2020/12/18 01:46:30;;;;;;;65.60;35.83;;;;;;;4.90;68.25;99954.11;251863;1134;115067;-86
2020/12/18 01:51:33;;;;;;;58.43;31.50;;;;;;;4.92;68.59;99965.47;251524;1133;116108;-86
2020/12/18 01:56:39;;;;;;;59.90;30.10;;;;;;;4.88;68.71;99966.45;251776;1133;114844;-85
2020/12/18 02:01:49;;;;;;;66.50;34.90;;;;;;;4.86;68.14;99956.87;251806;1134;114927;-80
2020/12/18 02:07:12;;;;;;;61.33;32.47;;;;;;;4.84;68.67;99956.88;251734;1134;116054;-79
2020/12/18 02:12:25;;;;;;;63.65;34.88;;;;;;;4.84;68.86;99956.88;251852;1134;114796;-79
2020/12/18 02:17:29;;;;;;;70.33;36.27;;;;;;;4.88;68.88;99949.77;251628;1134;115047;-86
2020/12/18 02:22:33;;;;;;;70.00;34.23;;;;;;;4.81;68.35;99962.23;251713;1134;114994;-86
2020/12/18 02:27:51;;;;;;;73.37;37.37;;;;;;;4.81;68.66;99964.86;251529;1135;115129;-80
2020/12/18 02:32:56;;;;;;;79.97;42.15;;;;;;;4.74;68.99;99952.73;251468;1133;114909;-80
2020/12/18 02:37:59;;;;;;;77.27;41.37;;;;;;;4.74;67.80;99961.50;251535;1134;115008;-80
2020/12/18 02:43:06;;;;;;;77.63;39.50;;;;;;;4.74;67.77;99965.91;251658;1134;114885;-86
2020/12/18 02:48:10;;;;;;;85.40;42.53;;;;;;;4.71;68.03;99973.89;251678;1134;114886;-80
2020/12/18 02:53:19;;;;;;;83.00;41.00;;;;;;;4.67;68.54;99967.83;251439;1134;115028;-80
2020/12/18 02:58:51;;;;;;;76.80;38.90;;;;;;;4.71;68.01;99947.53;251617;1135;114672;-80
2020/12/18 03:03:53;;;;;;;80.23;42.23;;;;;;;4.73;68.46;99954.51;251555;1133;115143;-80
2020/12/18 03:09:07;;;;;;;78.07;40.67;;;;;;;4.77;68.02;99954.44;251628;1134;114772;-87
2020/12/18 03:14:11;;;;;;;68.02;35.98;;;;;;;4.73;68.84;99961.55;251614;1135;114798;-87
2020/12/18 03:19:23;;;;;;;81.23;41.27;;;;;;;4.74;68.97;99965.91;251824;1134;114827;-88
2020/12/18 03:24:29;;;;;;;72.70;38.67;;;;;;;4.73;68.24;99980.88;251732;1134;114768;-80
2020/12/18 03:30:00;;;;;;;75.80;38.90;;;;;;;4.73;68.48;99966.83;251814;1134;115123;-87
2020/12/18 03:35:05;;;;;;;83.80;40.73;;;;;;;4.71;69.25;99969.48;251680;1135;115496;-88
2020/12/18 03:40:12;;;;;;;75.30;38.95;;;;;;;4.79;69.12;99979.88;251698;1134;114991;-81
2020/12/18 03:45:18;;;;;;;73.80;37.23;;;;;;;4.85;69.28;99970.93;251704;1134;115058;-87
2020/12/18 03:50:40;;;;;;;67.50;36.50;;;;;;;4.92;68.78;99968.10;251526;1134;115018;-81
2020/12/18 03:55:52;;;;;;;62.60;32.83;;;;;;;4.95;69.17;99970.67;251722;1135;115336;-81
2020/12/18 04:01:10;;;;;;;64.30;33.77;;;;;;;4.95;69.11;99964.53;251497;1134;114945;-80
2020/12/18 04:06:13;;;;;;;62.57;32.90;;;;;;;4.96;68.19;99971.56;251685;1134;115179;-83
2020/12/18 04:11:16;;;;;;;61.13;31.47;;;;;;;4.92;69.15;99978.66;251670;1135;115091;-89
2020/12/18 04:16:49;;;;;;;59.90;32.70;;;;;;;4.93;68.09;99975.13;251374;1135;114790;-92
2020/12/18 04:21:53;;;;;;;64.75;33.02;;;;;;;4.97;68.15;99974.15;251696;1134;115165;-82
2020/12/18 04:27:15;;;;;;;58.97;32.07;;;;;;;5.11;68.58;99980.87;251670;1134;114716;-80
2020/12/18 04:32:18;;;;;;;62.03;31.67;;;;;;;5.24;68.63;99982.30;251757;1135;115531;-88
2020/12/18 04:37:21;;;;;;;56.90;30.03;;;;;;;5.27;68.31;99995.42;251801;1134;115090;-81
2020/12/18 04:42:44;;;;;;;60.17;34.23;;;;;;;5.27;68.51;99992.78;251893;1134;114928;-87
2020/12/18 04:47:48;;;;;;;57.45;32.03;;;;;;;5.27;68.32;99992.78;251678;1134;115070;-84
2020/12/18 04:52:56;;;;;;;62.17;31.10;;;;;;;5.27;67.90;99997.19;251613;1133;115198;-89
2020/12/18 04:58:02;;;;;;;56.33;32.30;;;;;;;5.25;68.42;99998.99;251540;1134;115084;-88
2020/12/18 05:03:06;;;;;;;59.07;32.23;;;;;;;5.23;68.90;100006.96;251571;1135;115080;-82
2020/12/18 05:08:09;;;;;;;67.03;35.13;;;;;;;5.25;69.14;100004.27;251641;1135;115391;-89
2020/12/18 05:13:12;;;;;;;60.95;33.02;;;;;;;5.31;68.89;100004.98;251742;1134;115571;-85
2020/12/18 05:18:23;;;;;;;63.73;34.97;;;;;;;5.37;68.67;100003.97;251408;1134;115201;-83
2020/12/18 05:23:26;;;;;;;62.33;34.73;;;;;;;5.41;69.03;100019.69;251764;1135;114856;-83
2020/12/18 05:28:50;;;;;;;65.27;34.80;;;;;;;5.45;68.49;100020.47;251728;1135;114936;-86
2020/12/18 05:33:55;;;;;;;57.57;31.40;;;;;;;5.43;68.21;100017.89;251674;1135;115209;-83
2020/12/18 05:39:12;;;;;;;59.10;32.80;;;;;;;5.40;68.33;100031.16;251744;1134;114943;-84
2020/12/18 05:44:15;;;;;;;59.90;33.07;;;;;;;5.37;69.21;100033.87;251545;1134;114597;-83
2020/12/18 05:49:28;;;;;;;61.23;33.40;;;;;;;5.33;69.17;100042.78;251768;1133;115155;-83
2020/12/18 05:54:37;;;;;;;66.47;34.92;;;;;;;5.37;69.38;100036.52;251674;1135;115217;-81
2020/12/18 05:59:45;;;;;;;61.17;34.77;;;;;;;5.44;69.11;100040.73;251586;1134;114940;-87
2020/12/18 06:04:56;;;;;;;65.97;35.50;;;;;;;5.56;69.40;100041.31;251532;1135;115476;-86
2020/12/18 06:10:09;;;;;;;61.85;33.73;;;;;;;5.58;69.67;100052.72;251601;1135;115013;-86
2020/12/18 06:15:35;;;;;;;61.90;32.97;;;;;;;5.54;68.75;100061.63;251628;1134;114672;-82
2020/12/18 06:20:43;;;;;;;58.13;30.00;;;;;;;5.46;68.45;100062.66;251723;1135;115147;-83
2020/12/18 06:25:46;;;;;;;57.73;31.40;;;;;;;5.40;68.62;100059.30;251688;1135;114938;-83
2020/12/18 06:31:28;;;;;;;60.77;32.43;;;;;;;5.45;69.32;100070.63;251676;1135;114987;-82
2020/12/18 06:36:57;;;;;;;60.47;31.23;;;;;;;5.51;69.67;100077.55;251598;1135;115518;-83
2020/12/18 06:42:32;;;;;;;57.00;32.37;;;;;;;5.61;69.47;100074.63;251251;1135;115265;-83
2020/12/18 06:47:57;;;;;;;55.60;30.77;;;;;;;5.64;69.37;100071.05;251617;1134;115307;-83
2020/12/18 06:53:22;;;;;;;59.50;30.25;;;;;;;5.62;68.81;100072.85;251509;1134;115319;-83
2020/12/18 06:59:17;;;;;;;51.20;28.23;;;;;;;5.56;68.31;100086.20;251770;1133;115153;-83
2020/12/18 07:04:21;;;;;;;52.90;29.67;;;;;;;5.57;69.22;100086.18;251685;1135;115321;-84
2020/12/18 07:09:25;;;;;;;57.97;31.37;;;;;;;5.61;69.59;100074.63;251690;1134;115006;-92
2020/12/18 07:14:29;;;;;;;49.70;28.70;;;;;;;5.63;69.31;100086.00;250279;1134;114980;-93
2020/12/18 07:19:38;;;;;;;;;;;;;;;5.67;69.18;100090.33;251594;1135;115242;-93
2020/12/18 07:24:47;;;;;;;53.07;27.03;;;;;;;5.65;68.48;100091.27;251851;1134;102229;-93
2020/12/18 07:29:51;;;;;;;52.50;28.47;;;;;;;5.70;69.31;100097.28;251252;1134;114981;-92
2020/12/18 07:35:07;;;;;;;47.23;25.93;;;;;;;5.70;69.50;100099.92;251729;1134;115251;-83
2020/12/18 07:40:10;;;;;;;47.20;25.77;;;;;;;5.69;68.60;100100.84;251377;1134;115359;-83
2020/12/18 07:45:12;;;;;;;48.27;25.97;;;;;;;5.69;68.93;100106.12;251770;1135;115128;-84
2020/12/18 07:50:15;;;;;;;46.18;25.27;;;;;;;5.69;69.80;100106.12;251787;1134;115302;-83
2020/12/18 07:55:17;;;;;;;45.47;24.17;;;;;;;5.71;69.35;100106.96;251590;1134;115211;-84
2020/12/18 08:00:20;;;;;;;44.53;25.07;;;;;;;5.78;69.80;100108.54;251822;1133;115209;-87
2020/12/18 08:05:22;;;;;;;44.57;23.43;;;;;;;5.86;68.90;100103.05;251526;1133;115285;-88
2020/12/18 08:10:25;;;;;;;41.63;23.07;;;;;;;5.95;69.51;100109.92;251653;1134;114826;-89
2020/12/18 08:15:28;;;;;;;43.10;23.22;;;;;;;6.00;69.89;100114.16;251947;1134;115162;-81
2020/12/18 08:20:30;;;;;;;47.53;24.47;;;;;;;5.98;69.40;100123.92;251308;1138;115202;-80
2020/12/18 08:25:33;;;;;;;45.33;24.73;;;;;;;5.92;68.71;100134.61;251790;1133;114788;-80
2020/12/18 08:30:36;;;;;;;41.83;22.87;;;;;;;5.86;70.02;100125.05;251691;1135;115529;-80
2020/12/18 08:35:39;;;;;;;47.33;25.20;;;;;;;5.86;69.99;100134.75;251418;1134;114969;-87
2020/12/18 08:40:45;;;;;;;45.48;25.35;;;;;;;5.91;70.47;100138.16;251704;1134;115177;-87
2020/12/18 08:45:47;;;;;;;47.90;25.53;;;;;;;5.99;70.09;100135.35;251636;1133;115440;-87
2020/12/18 08:50:59;;;;;;;41.30;22.30;;;;;;;6.03;69.53;100140.50;251654;1134;115207;-81
2020/12/18 08:56:03;;;;;;;49.17;26.33;;;;;;;6.04;69.41;100141.37;251579;1135;115184;-81
2020/12/18 09:01:21;;;;;;;45.05;25.40;;;;;;;6.10;69.87;100139.44;251415;1135;115167;-80
2020/12/18 09:06:24;;;;;;;46.55;24.37;;;;;;;6.18;69.54;100146.30;251516;1135;115449;-76
2020/12/18 09:11:27;;;;;;;52.80;25.83;;;;;;;6.13;69.88;100149.93;251759;1133;115215;-86
2020/12/18 09:16:30;;;;;;;52.03;25.80;;;;;;;6.20;70.55;100147.99;251593;1135;115103;-86
2020/12/18 09:21:32;;;;;;;46.47;24.80;;;;;;;6.30;70.01;100152.13;251507;1134;115611;-86
2020/12/18 09:26:34;;;;;;;45.17;26.30;;;;;;;6.43;70.16;100151.81;251683;1134;115151;-86
2020/12/18 09:31:37;;;;;;;46.45;24.85;;;;;;;6.50;69.76;100151.59;251623;1135;115576;-86
2020/12/18 09:36:40;;;;;;;40.73;24.20;;;;;;;6.56;69.72;100156.72;251742;1133;114813;-85
2020/12/18 09:41:42;;;;;;;42.93;22.77;;;;;;;6.61;70.42;100149.51;251446;1135;115119;-85
2020/12/18 09:46:45;;;;;;;43.70;23.63;;;;;;;6.61;69.87;100143.36;251680;1134;115228;-81
2020/12/18 09:51:47;;;;;;;46.53;24.27;;;;;;;6.69;69.27;100145.78;251496;1134;114657;-81
2020/12/18 09:56:53;;;;;;;43.50;23.10;;;;;;;6.77;69.62;100152.60;251585;1133;115256;-80
2020/12/18 10:01:56;;;;;;;42.40;23.55;;;;;;;6.83;69.54;100149.78;251782;1134;115283;-81
2020/12/18 10:07:00;;;;;;;42.47;22.73;;;;;;;6.85;70.28;100150.59;251851;1134;115357;-81
2020/12/18 10:12:03;;;;;;;44.53;24.27;;;;;;;6.88;70.18;100152.28;251920;1134;115136;-81
2020/12/18 10:17:06;;;;;;;45.13;24.03;;;;;;;6.94;70.37;100148.61;251666;1134;115355;-81
2020/12/18 10:22:08;;;;;;;41.23;21.82;;;;;;;6.97;69.68;100157.32;251736;1134;115071;-82
2020/12/18 10:27:12;;;;;;;42.35;24.35;;;;;;;6.95;69.56;100145.04;251656;1134;115704;-81
2020/12/18 10:32:15;;;;;;;47.33;26.07;;;;;;;7.01;69.99;100160.74;251538;1133;116323;-85
2020/12/18 10:37:18;;;;;;;48.93;26.87;;;;;;;7.08;69.61;100151.70;251586;1133;115031;-81
2020/12/18 10:42:21;;;;;;;54.67;27.97;;;;;;;7.15;69.89;100161.19;251599;1135;115360;-85
2020/12/18 10:47:23;;;;;;;53.05;29.02;;;;;;;7.20;69.71;100155.75;251597;1135;115324;-85
2020/12/18 10:52:25;;;;;;;49.33;29.93;;;;;;;7.23;69.86;100153.88;251846;1134;115227;-81
2020/12/18 10:57:28;;;;;;;50.80;28.93;;;;;;;7.25;69.59;100146.77;251605;1133;115297;-81
2020/12/18 11:02:33;;;;;;;47.33;27.27;;;;;;;7.26;69.78;100150.27;251517;1134;116152;-86
2020/12/18 11:07:35;;;;;;;54.30;29.57;;;;;;;7.16;69.23;100156.77;251478;1134;115361;-87
2020/12/18 11:12:38;;;;;;;49.58;28.50;;;;;;;7.15;69.56;100152.39;251521;1133;115273;-85
2020/12/18 11:17:41;;;;;;;51.47;27.90;;;;;;;7.15;69.89;100150.61;251648;1134;115137;-86
2020/12/18 11:22:44;;;;;;;50.57;28.50;;;;;;;7.15;69.70;100149.74;251710;1134;115168;-86
2020/12/18 11:27:46;;;;;;;53.28;28.92;;;;;;;7.13;69.66;100147.12;251721;1134;116342;-86
2020/12/18 11:32:49;;;;;;;52.20;28.00;;;;;;;7.16;69.89;100147.03;251691;1134;115604;-82
2020/12/18 11:37:52;;;;;;;45.43;26.83;;;;;;;7.19;69.60;100146.08;251567;1134;114671;-86
2020/12/18 11:42:54;;;;;;;47.13;27.53;;;;;;;7.18;69.63;100147.87;251466;1134;115113;-82
2020/12/18 11:47:58;;;;;;;49.87;27.37;;;;;;;7.16;69.02;100139.09;251798;1134;115152;-86
2020/12/18 11:53:01;;;;;;;48.13;27.73;;;;;;;7.15;69.61;100140.02;251631;1135;115357;-85
2020/12/18 11:58:03;;;;;;;50.87;27.57;;;;;;;7.19;70.12;100132.84;251527;1134;115301;-82
2020/12/18 12:03:06;;;;;;;55.43;29.20;;;;;;;7.28;69.76;100141.38;251774;1134;115119;-86
2020/12/18 12:08:08;;;;;;;50.17;28.17;;;;;;;7.35;69.65;100134.11;251676;1133;115222;-85
2020/12/18 12:13:11;;;;;;;53.00;29.70;;;;;;;7.37;69.32;100134.95;251964;1134;115279;-85
2020/12/18 12:18:13;;;;;;;55.00;29.13;;;;;;;7.40;69.04;100137.47;251765;1135;115079;-87
2020/12/18 12:23:16;;;;;;;51.60;26.90;;;;;;;7.46;69.77;100139.06;251572;1134;115113;-87
2020/12/18 12:28:18;;;;;;;54.85;29.70;;;;;;;7.49;69.47;100137.19;251811;1135;115071;-87
2020/12/18 12:33:21;;;;;;;50.35;29.10;;;;;;;7.51;69.52;100134.51;251604;1134;115102;-87
2020/12/18 12:38:23;;;;;;;50.47;30.03;;;;;;;7.57;69.83;100140.48;251683;1134;114797;-86
2020/12/18 12:43:26;;;;;;;50.80;28.57;;;;;;;7.62;68.99;100140.31;251637;1135;115307;-82
2020/12/18 12:48:28;;;;;;;53.17;29.33;;;;;;;7.68;68.82;100144.56;251551;1134;115140;-85
2020/12/18 12:53:31;;;;;;;48.78;27.85;;;;;;;7.65;68.65;100129.63;251475;1134;115037;-86
2020/12/18 12:58:33;;;;;;;52.17;28.97;;;;;;;7.62;69.11;100135.02;251525;1135;114829;-82
2020/12/18 13:03:37;;;;;;;52.70;29.43;;;;;;;7.60;69.30;100126.24;251556;1135;114968;-82
2020/12/18 13:08:39;;;;;;;48.40;28.23;;;;;;;7.67;69.42;100122.47;251602;1134;115190;-82
2020/12/18 13:13:42;;;;;;;53.93;30.23;;;;;;;7.69;68.92;100130.39;251624;1135;115340;-82
2020/12/18 13:18:44;;;;;;;54.27;29.90;;;;;;;7.70;68.52;100127.67;251644;1133;115512;-82
2020/12/18 13:23:47;;;;;;;57.73;30.83;;;;;;;7.75;68.66;100128.41;251516;1135;114843;-86
2020/12/18 13:28:49;;;;;;;50.07;26.23;;;;;;;7.78;69.03;100128.31;251767;1134;115249;-82
2020/12/18 13:33:52;;;;;;;47.67;27.23;;;;;;;7.76;68.31;100127.48;251641;1134;115246;-85
2020/12/18 13:38:57;;;;;;;45.97;26.30;;;;;;;7.74;68.75;100129.30;251623;1134;114872;-82
2020/12/18 13:43:59;;;;;;;47.03;27.17;;;;;;;7.71;68.76;100128.53;251757;1134;114958;-85
2020/12/18 13:49:02;;;;;;;50.93;28.40;;;;;;;7.74;68.69;100128.44;251523;1135;115393;-82
2020/12/18 13:54:04;;;;;;;49.93;29.30;;;;;;;7.78;68.93;100127.45;251600;1133;114968;-82
2020/12/18 13:59:07;;;;;;;51.40;30.00;;;;;;;7.78;68.33;100138.05;251639;1134;115563;-85
2020/12/18 14:04:11;;;;;;;54.37;30.80;;;;;;;7.77;68.50;100142.45;251677;1135;115624;-85
2020/12/18 14:09:14;;;;;;;57.93;31.05;;;;;;;7.76;68.29;100130.12;251823;1136;114906;-82
2020/12/18 14:14:18;;;;;;;55.53;30.87;;;;;;;7.69;68.05;100144.50;251908;1134;115015;-77
2020/12/18 14:19:20;;;;;;;58.87;30.93;;;;;;;7.62;68.00;100144.76;251424;1135;115502;-77
2020/12/18 14:24:23;;;;;;;59.40;31.83;;;;;;;7.53;67.87;100145.91;251665;1135;116597;-83
2020/12/18 14:29:29;;;;;;;60.37;32.37;;;;;;;7.45;68.35;100146.16;251713;1135;116290;-87
2020/12/18 14:34:33;;;;;;;57.03;31.55;;;;;;;7.39;68.11;100153.42;251608;1134;115035;-81
2020/12/18 14:39:37;;;;;;;;;;;;;;;7.33;68.48;100150.03;252011;1135;115114;-82
2020/12/18 14:44:39;;;;;;;62.83;34.57;;;;;;;7.29;68.49;100145.75;251711;1134;102468;-81
2020/12/18 14:49:42;;;;;;;64.63;35.50;;;;;;;7.24;68.41;100136.23;251590;1134;115342;-81
2020/12/18 14:54:45;;;;;;;63.53;34.93;;;;;;;7.20;68.85;100135.47;251595;1134;115209;-85
2020/12/18 14:59:48;;;;;;;70.10;36.33;;;;;;;7.17;68.25;100132.02;251579;1137;115385;-85
2020/12/18 15:04:56;;;;;;;65.83;35.43;;;;;;;7.11;68.21;100141.89;251780;1133;114971;-84
2020/12/18 15:09:58;;;;;;;70.43;36.77;;;;;;;7.03;68.01;100146.56;251685;1134;114993;-86
2020/12/18 15:15:01;;;;;;;65.23;35.53;;;;;;;6.89;68.00;100148.72;251779;1133;116130;-76
2020/12/18 15:20:05;;;;;;;67.77;37.30;;;;;;;6.79;67.94;100156.08;251589;1134;114861;-77
2020/12/18 15:25:28;;;;;;;68.85;37.35;;;;;;;6.68;68.20;100163.43;251701;1135;115098;-82
2020/12/18 15:30:31;;;;;;;69.50;37.03;;;;;;;6.62;68.75;100160.95;251697;1134;115282;-84
2020/12/18 15:35:34;;;;;;;70.53;37.60;;;;;;;6.57;67.81;100165.52;251676;1134;115347;-78
2020/12/18 15:40:36;;;;;;;70.50;38.07;;;;;;;6.52;68.45;100164.77;251374;1134;115307;-83
2020/12/18 15:45:40;;;;;;;66.87;38.27;;;;;;;6.41;68.61;100159.77;251802;1134;115266;-87
2020/12/18 15:50:42;;;;;;;73.42;39.48;;;;;;;6.24;68.11;100152.28;251733;1134;114750;-83
2020/12/18 15:55:45;;;;;;;72.07;38.03;;;;;;;6.10;68.14;100160.58;251859;1134;114975;-89
2020/12/18 16:00:48;;;;;;;67.43;37.53;;;;;;;5.97;67.96;100167.08;251913;1135;115489;-91
2020/12/18 16:05:50;;;;;;;71.15;37.25;;;;;;;5.84;68.49;100169.14;251828;1134;114835;-88
2020/12/18 16:10:56;;;;;;;66.40;37.23;;;;;;;5.74;67.52;100164.99;251903;1134;114648;-89
2020/12/18 16:16:02;;;;;;;75.80;39.77;;;;;;;5.66;67.75;100166.93;251807;1134;115130;-85
2020/12/18 16:21:10;;;;;;;73.10;38.07;;;;;;;5.65;68.41;100160.78;251657;1135;115222;-84
2020/12/18 16:26:20;;;;;;;72.53;39.67;;;;;;;5.62;67.74;100162.63;251209;1133;115607;-83
2020/12/18 16:31:23;;;;;;;70.77;38.93;;;;;;;5.60;68.33;100175.85;251961;1133;115212;-84
2020/12/18 16:36:25;;;;;;;77.63;42.47;;;;;;;5.55;67.95;100174.24;251583;1134;114704;-80
2020/12/18 16:41:33;;;;;;;72.00;37.53;;;;;;;5.44;68.50;100174.50;251918;1134;115098;-81
2020/12/18 16:46:35;;;;;;;71.33;38.60;;;;;;;5.33;68.15;100177.38;251881;1134;115105;-81
2020/12/18 16:51:38;;;;;;;64.73;36.47;;;;;;;5.24;68.98;100182.86;251804;1135;115274;-77
2020/12/18 16:56:40;;;;;;;72.10;36.50;;;;;;;5.12;68.76;100178.70;251499;1133;115179;-81
2020/12/18 17:01:43;;;;;;;65.20;35.73;;;;;;;5.01;68.97;100188.61;251719;1134;115059;-86
2020/12/18 17:06:49;;;;;;;72.15;39.55;;;;;;;4.91;67.93;100181.79;251647;1134;115616;-87
2020/12/18 17:12:02;;;;;;;74.50;38.50;;;;;;;4.87;67.88;100178.35;250672;1134;115224;-86
2020/12/18 17:17:09;;;;;;;77.80;38.73;;;;;;;4.83;68.20;100181.95;251670;1135;114696;-86
2020/12/18 17:22:12;;;;;;;73.93;40.00;;;;;;;4.83;68.71;100181.95;251539;1133;115786;-85
2020/12/18 17:27:23;;;;;;;74.63;39.27;;;;;;;4.81;67.89;100185.52;251923;1135;115746;-87
2020/12/18 17:32:26;;;;;;;68.67;39.20;;;;;;;4.76;68.22;100187.39;251723;1135;115318;-85
2020/12/18 17:37:29;;;;;;;73.47;38.03;;;;;;;4.69;68.59;100182.23;251746;1134;115311;-85
2020/12/18 17:42:31;;;;;;;75.30;38.50;;;;;;;4.58;68.53;100194.73;251841;1135;115827;-85
2020/12/18 17:47:34;;;;;;;77.67;39.63;;;;;;;4.45;68.17;100190.58;251583;1135;115100;-89
2020/12/18 17:52:36;;;;;;;73.37;40.30;;;;;;;4.37;68.39;100192.50;251804;1134;115231;-89
2020/12/18 17:57:40;;;;;;;79.60;43.25;;;;;;;4.27;68.46;100197.93;251595;1133;115086;-85
2020/12/18 18:02:42;;;;;;;92.83;49.23;;;;;;;4.19;68.29;100191.08;251532;1133;115256;-86
2020/12/18 18:07:45;;;;;;;86.13;47.13;;;;;;;4.10;67.93;100194.72;251659;1134;115357;-86
2020/12/18 18:12:47;;;;;;;92.87;46.97;;;;;;;4.07;68.12;100193.91;251632;1135;115088;-86
2020/12/18 18:17:50;;;;;;;96.27;50.93;;;;;;;4.06;68.82;100197.45;251510;1134;115472;-86
2020/12/18 18:22:52;;;;;;;91.95;49.75;;;;;;;4.02;68.17;100197.49;251794;1135;115872;-89
2020/12/18 18:27:55;;;;;;;99.73;51.90;;;;;;;3.97;68.25;100206.36;251653;1134;115054;-86
2020/12/18 18:32:58;;;;;;;114.87;58.27;;;;;;;3.88;68.11;100210.02;251529;1134;116141;-86
2020/12/18 18:38:01;;;;;;;112.30;60.07;;;;;;;3.80;68.14;100211.89;251654;1133;115380;-85
2020/12/18 18:43:04;;;;;;;132.00;66.77;;;;;;;3.69;68.61;100222.59;251589;1134;115488;-86
2020/12/18 18:48:07;;;;;;;132.87;70.15;;;;;;;3.58;67.90;100219.25;251525;1135;115334;-87
2020/12/18 18:53:09;;;;;;;139.87;72.30;;;;;;;3.49;68.02;100228.13;251480;1134;115269;-87
2020/12/18 18:58:12;;;;;;;142.50;72.00;;;;;;;3.43;68.16;100222.09;251740;1134;115215;-86
2020/12/18 19:03:14;;;;;;;141.43;68.07;;;;;;;3.39;68.20;100223.89;251627;1135;115368;-86
2020/12/18 19:08:16;;;;;;;132.23;67.80;;;;;;;3.37;68.42;100220.43;251608;1134;115460;-87
2020/12/18 19:13:19;;;;;;;130.90;69.37;;;;;;;3.34;68.56;100215.20;251567;1135;115644;-86
2020/12/18 19:18:21;;;;;;;122.83;64.93;;;;;;;3.31;67.88;100225.77;251676;1135;115157;-78
2020/12/18 19:23:24;;;;;;;112.62;62.80;;;;;;;3.24;67.91;100222.34;251641;1134;115178;-79
2020/12/18 19:28:26;;;;;;;120.40;62.30;;;;;;;3.15;67.63;100221.59;251593;1134;115278;-88
2020/12/18 19:33:29;;;;;;;116.27;65.07;;;;;;;3.02;68.04;100231.39;251698;1135;115590;-90
2020/12/18 19:38:32;;;;;;;139.50;76.55;;;;;;;2.93;67.95;100227.13;251753;1133;115126;-89
2020/12/18 19:43:35;;;;;;;136.23;73.30;;;;;;;2.85;67.64;100226.33;251878;1141;115328;-90
2020/12/18 19:48:37;;;;;;;144.47;76.53;;;;;;;2.74;67.99;100215.07;251526;1135;115369;-89
2020/12/18 19:53:44;;;;;;;132.57;71.00;;;;;;;2.65;67.97;100218.69;251930;1133;115249;-90
2020/12/18 19:58:46;;;;;;;127.63;67.20;;;;;;;2.64;68.07;100216.92;251628;1134;115257;-80
2020/12/18 20:03:49;;;;;;;124.60;64.40;;;;;;;2.63;68.27;100209.94;251418;1134;115376;-88
2020/12/18 20:08:52;;;;;;;116.90;59.70;;;;;;;2.59;68.00;100213.49;251709;1135;115303;-83
2020/12/18 20:13:56;;;;;;;115.73;59.93;;;;;;;2.54;68.49;100210.03;251768;1136;115268;-92
2020/12/18 20:18:59;;;;;;;100.67;53.85;;;;;;;2.53;68.31;100210.92;251899;1133;115241;-83
2020/12/18 20:24:02;;;;;;;115.73;57.80;;;;;;;2.49;68.40;100199.58;251962;1134;115252;-88
2020/12/18 20:29:04;;;;;;;106.67;55.73;;;;;;;2.46;68.42;100202.23;251689;1135;116383;-80
2020/12/18 20:34:08;;;;;;;95.63;52.93;;;;;;;2.44;68.82;100196.11;251361;1133;115208;-87
2020/12/18 20:39:11;;;;;;;104.47;53.70;;;;;;;2.42;68.49;100200.53;251812;1134;115175;-84
2020/12/18 20:44:13;;;;;;;102.83;51.93;;;;;;;2.44;68.51;100188.23;252045;1135;115305;-85
2020/12/18 20:49:16;;;;;;;109.60;56.47;;;;;;;2.45;68.55;100181.25;250811;1134;115496;-87
2020/12/18 20:54:18;;;;;;;110.35;57.30;;;;;;;2.41;68.36;100188.27;251814;1135;115180;-89
2020/12/18 20:59:21;;;;;;;108.57;56.40;;;;;;;2.31;68.20;100182.26;251721;1134;115180;-89
2020/12/18 21:04:23;;;;;;;113.57;59.23;;;;;;;2.27;68.73;100185.77;251692;1135;115272;-88
2020/12/18 21:09:30;;;;;;;116.53;60.80;;;;;;;2.26;69.16;100177.92;251116;1134;115183;-85
2020/12/18 21:14:33;;;;;;;120.63;60.83;;;;;;;2.27;68.48;100172.64;251480;1135;115067;-86
2020/12/18 21:19:36;;;;;;;117.53;61.85;;;;;;;2.20;68.60;100177.98;251701;1137;115188;-86
2020/12/18 21:24:38;;;;;;;124.70;63.43;;;;;;;2.12;68.71;100184.17;251524;1134;115357;-85
2020/12/18 21:29:44;;;;;;;121.80;62.83;;;;;;;2.10;68.56;100174.56;251421;1134;115635;-88
2020/12/18 21:34:47;;;;;;;122.67;61.43;;;;;;;2.13;69.01;100183.28;250682;1133;116170;-87
2020/12/18 21:39:50;;;;;;;122.53;63.77;;;;;;;2.13;68.05;100178.03;250850;1133;115331;-85
2020/12/18 21:44:53;;;;;;;117.60;62.98;;;;;;;2.12;68.53;100173.67;252022;1133;114962;-89
2020/12/18 21:49:56;;;;;;;124.33;59.97;;;;;;;2.07;68.92;100166.71;251503;1133;115541;-88
2020/12/18 21:54:59;;;;;;;115.40;59.50;;;;;;;2.02;68.82;100173.78;251505;1136;115176;-89
2020/12/18 22:00:04;;;;;;;122.73;62.40;;;;;;;2.01;68.73;100165.03;249680;1134;115620;-90
2020/12/18 22:05:07;;;;;;;121.35;61.75;;;;;;;2.04;68.79;100167.64;251722;1134;115177;-85
2020/12/18 22:10:09;;;;;;;121.57;60.60;;;;;;;2.01;68.75;100161.55;251844;1134;115180;-86
2020/12/18 22:15:12;;;;;;;116.85;60.00;;;;;;;2.00;68.91;100158.02;250264;1134;116670;-85
2020/12/18 22:20:15;;;;;;;128.97;62.07;;;;;;;2.03;68.88;100150.13;251375;1134;115370;-85
2020/12/18 22:25:17;;;;;;;127.90;61.27;;;;;;;2.07;68.83;100151.86;251582;1133;115862;-91
2020/12/18 22:30:20;;;;;;;136.73;62.23;;;;;;;2.11;69.15;100155.33;251748;1133;115306;-86
2020/12/18 22:35:24;;;;;;;128.97;62.43;;;;;;;2.13;69.23;100153.53;251704;1134;115424;-87
2020/12/18 22:40:27;;;;;;;151.97;60.57;;;;;;;2.21;69.16;100158.70;251382;1135;115326;-86
2020/12/18 22:45:29;;;;;;;140.47;56.27;;;;;;;2.20;69.39;100156.97;251462;1134;115417;-86
2020/12/18 22:50:32;;;;;;;107.97;53.53;;;;;;;2.18;69.45;100156.14;251064;1134;115405;-86
2020/12/18 22:55:34;;;;;;;104.67;54.20;;;;;;;2.16;69.64;100158.76;251684;1135;115274;-89